createdAt,value
2019-05-16T00:00:04.055Z,20.17
2019-05-16T00:02:37.705Z,22.42
2019-05-16T00:05:09.711Z,20.43
2019-05-16T00:07:40.701Z,19.45
2019-05-16T00:10:13.947Z,20.85
2019-05-16T00:12:45.203Z,22.07
2019-05-16T00:15:18.176Z,24.90
2019-05-16T00:17:49.527Z,22.02
2019-05-16T00:20:20.612Z,20.07
2019-05-16T00:22:51.480Z,20.32
2019-05-16T00:25:23.082Z,18.32
2019-05-16T00:27:54.080Z,19.85
2019-05-16T00:30:25.160Z,20.08
2019-05-16T00:32:58.529Z,18.12
2019-05-16T00:35:29.360Z,17.40
2019-05-16T00:38:00.555Z,18.95
2019-05-16T00:40:31.746Z,18.70
2019-05-16T00:43:03.068Z,20.13
2019-05-16T00:45:34.130Z,21.10
2019-05-16T00:48:05.257Z,23.35
2019-05-16T00:50:36.324Z,19.65
2019-05-16T00:53:09.188Z,18.82
2019-05-16T00:55:41.134Z,22.27
2019-05-16T00:58:13.670Z,22.40
2019-05-16T01:00:50.438Z,21.82
2019-05-16T01:03:22.023Z,21.00
2019-05-16T01:05:53.257Z,22.42
2019-05-16T01:08:24.642Z,19.85
2019-05-16T01:10:55.940Z,20.30
2019-05-16T01:13:27.855Z,21.50
2019-05-16T01:15:59.221Z,21.60
2019-05-16T01:18:30.267Z,20.25
2019-05-16T01:21:01.298Z,20.70
2019-05-16T01:23:32.372Z,22.22
2019-05-16T01:26:03.629Z,23.87
2019-05-16T01:28:34.838Z,26.73
2019-05-16T01:31:08.417Z,23.97
2019-05-16T01:33:39.413Z,26.00
2019-05-16T01:36:10.486Z,25.40
2019-05-16T01:38:41.637Z,22.50
2019-05-16T01:41:12.692Z,25.77
2019-05-16T01:43:43.777Z,21.05
2019-05-16T01:46:14.953Z,20.15
2019-05-16T01:48:48.260Z,23.70
2019-05-16T01:51:18.818Z,20.55
2019-05-16T01:53:49.920Z,20.30
2019-05-16T01:56:20.990Z,21.87
2019-05-16T01:58:52.171Z,17.85
2019-05-16T02:01:23.219Z,20.10
2019-05-16T02:03:54.577Z,19.98
2019-05-16T02:06:28.658Z,21.68
2019-05-16T02:08:58.909Z,20.35
2019-05-16T02:11:30.089Z,21.02
2019-05-16T02:14:01.237Z,20.72
2019-05-16T02:16:32.309Z,22.42
2019-05-16T02:19:03.356Z,22.00
2019-05-16T02:21:34.574Z,17.92
2019-05-16T02:24:05.785Z,19.67
2019-05-16T02:26:38.631Z,20.62
2019-05-16T02:29:13.607Z,18.23
2019-05-16T02:31:42.897Z,19.60
2019-05-16T02:34:13.977Z,18.30
2019-05-16T02:36:45.329Z,20.00
2019-05-16T02:39:16.407Z,24.92
2019-05-16T02:41:47.508Z,22.73
2019-05-16T02:44:20.795Z,24.55
2019-05-16T02:46:51.468Z,24.43
2019-05-16T02:49:25.932Z,23.85
2019-05-16T02:51:57.378Z,23.22
2019-05-16T02:54:31.657Z,23.50
2019-05-16T02:57:01.701Z,22.67
2019-05-16T02:59:32.872Z,19.82
2019-05-16T03:02:04.193Z,21.70
2019-05-16T03:04:39.808Z,24.98
2019-05-16T03:07:13.449Z,24.85
2019-05-16T03:09:44.181Z,23.00
2019-05-16T03:12:16.226Z,24.18
2019-05-16T03:14:54.455Z,23.32
2019-05-16T03:17:31.614Z,24.98
2019-05-16T03:20:02.534Z,21.90
2019-05-16T03:22:33.655Z,23.43
2019-05-16T03:25:06.299Z,23.63
2019-05-16T03:27:37.413Z,24.87
2019-05-16T03:30:14.407Z,21.80
2019-05-16T03:32:44.684Z,25.93
2019-05-16T03:35:16.089Z,20.50
2019-05-16T03:37:55.680Z,20.72
2019-05-16T03:40:31.112Z,20.85
2019-05-16T03:43:01.683Z,18.90
2019-05-16T03:45:33.231Z,19.13
2019-05-16T03:48:04.455Z,19.52
2019-05-16T03:50:35.518Z,18.32
2019-05-16T03:53:06.545Z,19.12
2019-05-16T03:55:40.471Z,18.17
2019-05-16T03:58:11.748Z,16.87
2019-05-16T04:00:54.476Z,15.77
2019-05-16T04:03:28.544Z,18.90
2019-05-16T04:06:00.809Z,16.67
2019-05-16T04:08:31.352Z,18.40
2019-05-16T04:11:02.657Z,17.17
2019-05-16T04:13:34.148Z,16.33
2019-05-16T04:16:05.221Z,21.83
2019-05-16T04:18:36.371Z,19.02
2019-05-16T04:21:07.417Z,20.30
2019-05-16T04:23:41.664Z,17.98
2019-05-16T04:26:11.516Z,18.57
2019-05-16T04:28:42.574Z,17.37
2019-05-16T04:31:13.722Z,18.80
2019-05-16T04:33:44.857Z,20.68
2019-05-16T04:36:16.014Z,16.93
2019-05-16T04:38:47.162Z,18.83
2019-05-16T04:41:21.154Z,17.80
2019-05-16T04:43:51.039Z,20.55
2019-05-16T04:46:22.155Z,20.53
2019-05-16T04:48:53.039Z,19.90
2019-05-16T04:51:23.895Z,16.15
2019-05-16T04:53:54.932Z,19.23
2019-05-16T04:56:26.095Z,16.50
2019-05-16T04:59:00.375Z,18.12
2019-05-16T05:01:30.775Z,21.10
2019-05-16T05:04:10.778Z,18.55
2019-05-16T05:06:35.412Z,19.05
2019-05-16T05:09:07.695Z,21.73
2019-05-16T05:11:41.313Z,19.95
2019-05-16T05:14:11.710Z,20.70
2019-05-16T05:16:43.346Z,20.80
2019-05-16T05:19:14.306Z,19.57
2019-05-16T05:21:45.605Z,18.65
2019-05-16T05:24:16.712Z,18.62
2019-05-16T05:26:50.220Z,21.60
2019-05-16T05:29:20.702Z,20.55
2019-05-16T05:31:55.047Z,18.92
2019-05-16T05:34:24.574Z,20.95
2019-05-16T05:36:55.710Z,18.48
2019-05-16T05:39:27.668Z,17.40
2019-05-16T05:42:00.030Z,15.95
2019-05-16T05:44:31.330Z,21.55
2019-05-16T05:47:02.486Z,19.17
2019-05-16T05:49:33.734Z,16.95
2019-05-16T05:52:04.920Z,18.02
2019-05-16T05:54:36.264Z,22.58
2019-05-16T05:57:09.817Z,20.97
2019-05-16T05:59:40.548Z,18.98
2019-05-16T06:02:12.022Z,22.75
2019-05-16T06:04:43.016Z,19.67
2019-05-16T06:07:14.134Z,21.17
2019-05-16T06:09:53.537Z,18.42
2019-05-16T06:12:21.057Z,23.80
2019-05-16T06:14:51.259Z,23.15
2019-05-16T06:17:25.352Z,24.12
2019-05-16T06:19:56.452Z,24.35
2019-05-16T06:22:29.651Z,24.00
2019-05-16T06:25:01.154Z,26.97
2019-05-16T06:27:32.447Z,22.95
2019-05-16T06:30:03.881Z,22.00
2019-05-16T06:32:34.981Z,21.15
2019-05-16T06:35:09.906Z,22.67
2019-05-16T06:37:41.102Z,23.22
2019-05-16T06:40:13.064Z,25.82
2019-05-16T06:42:44.146Z,22.90
2019-05-16T06:45:15.456Z,24.05
2019-05-16T06:47:46.518Z,24.50
2019-05-16T06:50:20.620Z,25.70
2019-05-16T06:52:50.576Z,22.85
2019-05-16T06:55:21.768Z,23.00
2019-05-16T06:57:53.022Z,22.35
2019-05-16T07:00:25.821Z,22.77
2019-05-16T07:02:56.947Z,19.95
2019-05-16T07:05:29.974Z,20.90
2019-05-16T07:08:01.096Z,19.87
2019-05-16T07:10:33.449Z,19.42
2019-05-16T07:13:04.666Z,20.23
2019-05-16T07:15:35.712Z,21.55
2019-05-16T07:18:06.689Z,19.17
2019-05-16T07:20:39.927Z,17.67
2019-05-16T07:23:10.853Z,20.02
2019-05-16T07:25:42.895Z,19.02
2019-05-16T07:28:14.033Z,18.52
2019-05-16T07:30:46.362Z,17.52
2019-05-16T07:33:17.341Z,18.02
2019-05-16T07:35:50.888Z,17.37
2019-05-16T07:38:21.393Z,17.35
2019-05-16T07:40:52.583Z,16.67
2019-05-16T07:43:23.687Z,16.57
2019-05-16T07:45:54.689Z,18.25
2019-05-16T07:48:25.817Z,16.20
2019-05-16T07:50:56.701Z,18.40
2019-05-16T07:53:27.615Z,16.82
2019-05-16T07:56:00.119Z,16.60
2019-05-16T07:58:31.566Z,15.05
2019-05-16T08:01:07.842Z,17.60
2019-05-16T08:03:35.569Z,16.87
2019-05-16T08:06:07.097Z,12.95
2019-05-16T08:08:40.367Z,12.70
2019-05-16T08:11:12.222Z,13.35
2019-05-16T08:13:44.268Z,11.68
2019-05-16T08:16:15.646Z,12.75
2019-05-16T08:18:50.007Z,13.53
2019-05-16T08:21:22.119Z,16.67
2019-05-16T08:23:53.176Z,15.13
2019-05-16T08:26:24.189Z,12.10
2019-05-16T08:28:55.118Z,15.43
2019-05-16T08:31:26.046Z,13.00
2019-05-16T08:33:56.989Z,12.30
2019-05-16T08:36:30.727Z,13.45
2019-05-16T08:39:02.416Z,12.15
2019-05-16T08:41:33.389Z,14.00
2019-05-16T08:44:05.118Z,14.28
2019-05-16T08:46:41.165Z,13.58
2019-05-16T08:49:12.309Z,14.75
2019-05-16T08:51:43.000Z,13.30
2019-05-16T08:54:14.326Z,13.88
2019-05-16T08:56:45.414Z,13.20
2019-05-16T08:59:16.623Z,13.83
2019-05-16T09:01:56.709Z,12.65
2019-05-16T09:04:24.624Z,14.75
2019-05-16T09:06:53.738Z,15.18
2019-05-16T09:09:41.677Z,14.00
2019-05-16T09:11:58.220Z,14.45
2019-05-16T09:14:35.155Z,14.75
2019-05-16T09:17:01.966Z,14.18
2019-05-16T09:19:33.038Z,14.60
2019-05-16T09:22:07.239Z,15.93
2019-05-16T09:24:37.791Z,15.35
2019-05-16T09:27:12.389Z,15.38
2019-05-16T09:29:42.018Z,13.00
2019-05-16T09:32:21.064Z,12.53
2019-05-16T09:34:47.914Z,13.58
2019-05-16T09:37:19.358Z,13.78
2019-05-16T09:39:50.816Z,13.28
2019-05-16T09:42:21.910Z,13.28
2019-05-16T09:44:53.499Z,13.70
2019-05-16T09:47:27.931Z,15.30
2019-05-16T09:49:58.122Z,15.32
2019-05-16T09:52:30.939Z,15.68
2019-05-16T09:55:02.407Z,14.28
2019-05-16T09:57:33.814Z,15.38
2019-05-16T10:00:08.247Z,16.30
2019-05-16T10:02:39.305Z,16.62
2019-05-16T10:05:13.504Z,15.60
2019-05-16T10:07:47.047Z,14.25
2019-05-16T10:10:17.740Z,12.93
2019-05-16T10:12:49.084Z,14.10
2019-05-16T10:15:20.674Z,14.47
2019-05-16T10:17:52.030Z,16.48
2019-05-16T10:20:23.201Z,15.25
2019-05-16T10:22:57.694Z,16.73
2019-05-16T10:25:27.925Z,14.25
2019-05-16T10:27:58.827Z,16.75
2019-05-16T10:30:30.456Z,14.70
2019-05-16T10:33:01.678Z,16.17
2019-05-16T10:35:32.696Z,16.87
2019-05-16T10:38:03.678Z,17.27
2019-05-16T10:40:36.894Z,17.00
2019-05-16T10:43:07.794Z,15.20
2019-05-16T10:45:38.971Z,17.25
2019-05-16T10:48:10.162Z,13.85
2019-05-16T10:50:41.313Z,16.67
2019-05-16T10:53:32.434Z,14.45
2019-05-16T10:55:47.601Z,16.87
2019-05-16T10:58:35.405Z,14.87
2019-05-16T11:03:24.557Z,13.30
2019-05-16T11:06:02.980Z,16.80
2019-05-16T11:08:28.739Z,15.78
2019-05-16T11:11:00.148Z,15.88
2019-05-16T11:13:31.612Z,17.12
2019-05-16T11:16:02.614Z,15.15
2019-05-16T11:18:33.818Z,14.30
2019-05-16T11:21:04.785Z,13.28
2019-05-16T11:23:36.707Z,14.90
2019-05-16T11:26:08.271Z,14.35
2019-05-16T11:28:39.543Z,13.32
2019-05-16T11:31:10.569Z,14.00
2019-05-16T11:33:41.796Z,13.05
2019-05-16T11:36:13.225Z,13.22
2019-05-16T11:38:47.250Z,13.45
2019-05-16T11:41:17.640Z,13.13
2019-05-16T11:43:48.984Z,12.82
2019-05-16T11:46:20.083Z,27.93
2019-05-16T11:48:51.253Z,17.92
2019-05-16T11:51:22.312Z,13.45
2019-05-16T11:53:53.602Z,13.38
2019-05-16T11:56:24.866Z,14.30
2019-05-16T11:58:57.057Z,16.55
2019-05-16T12:01:28.396Z,15.90
2019-05-16T12:04:00.017Z,17.00
2019-05-16T12:06:31.255Z,17.73
2019-05-16T12:09:02.232Z,16.40
2019-05-16T12:11:33.375Z,18.55
2019-05-16T12:14:04.412Z,17.50
2019-05-16T12:16:37.902Z,17.57
2019-05-16T12:19:09.064Z,15.48
2019-05-16T12:21:40.084Z,19.55
2019-05-16T12:24:11.437Z,18.48
2019-05-16T12:26:43.137Z,18.82
2019-05-16T12:29:17.146Z,18.80
2019-05-16T12:31:57.843Z,19.62
2019-05-16T12:34:20.217Z,18.65
2019-05-16T12:36:51.580Z,20.20
2019-05-16T12:39:23.096Z,18.20
2019-05-16T12:41:58.523Z,17.87
2019-05-16T12:44:27.040Z,17.10
2019-05-16T12:46:58.477Z,16.93
2019-05-16T12:49:29.625Z,16.67
2019-05-16T12:52:00.863Z,18.67
2019-05-16T12:54:32.102Z,18.80
2019-05-16T12:57:03.610Z,19.40
2019-05-16T12:59:36.669Z,19.25
2019-05-16T13:02:07.695Z,19.02
2019-05-16T13:04:39.217Z,16.75
2019-05-16T13:07:10.315Z,17.55
2019-05-16T13:09:41.358Z,17.87
2019-05-16T13:12:13.895Z,17.62
2019-05-16T13:14:45.023Z,17.40
2019-05-16T13:17:16.709Z,19.80
2019-05-16T13:19:48.373Z,17.23
2019-05-16T13:22:19.743Z,17.40
2019-05-16T13:24:51.109Z,16.87
2019-05-16T13:27:23.735Z,15.95
2019-05-16T13:29:57.892Z,20.05
2019-05-16T13:32:28.021Z,20.77
2019-05-16T13:34:59.411Z,19.02
2019-05-16T13:37:30.880Z,21.07
2019-05-16T13:40:02.614Z,20.35
2019-05-16T13:42:33.896Z,21.77
2019-05-16T13:45:07.173Z,22.02
2019-05-16T13:47:38.362Z,20.57
2019-05-16T13:50:12.299Z,19.70
2019-05-16T13:52:43.069Z,18.70
2019-05-16T13:55:16.752Z,16.67
2019-05-16T13:57:48.047Z,18.98
2019-05-16T14:00:20.181Z,20.35
2019-05-16T14:02:51.634Z,21.62
2019-05-16T14:05:22.890Z,21.77
2019-05-16T14:07:57.281Z,24.52
2019-05-16T14:10:29.687Z,23.02
2019-05-16T14:13:02.015Z,21.93
2019-05-16T14:15:33.147Z,25.45
2019-05-16T14:18:04.335Z,25.17
2019-05-16T14:20:37.908Z,22.65
2019-05-16T14:23:09.028Z,22.22
2019-05-16T14:25:40.171Z,21.35
2019-05-16T14:28:12.110Z,21.70
2019-05-16T14:30:46.809Z,22.67
2019-05-16T14:33:17.417Z,22.25
2019-05-16T14:35:48.473Z,22.85
2019-05-16T14:38:19.725Z,26.23
2019-05-16T14:40:50.965Z,27.15
2019-05-16T14:43:23.004Z,22.85
2019-05-16T14:45:54.314Z,24.77
2019-05-16T14:48:27.891Z,24.02
2019-05-16T14:50:58.623Z,22.45
2019-05-16T14:53:30.037Z,20.77
2019-05-16T14:56:01.399Z,25.40
2019-05-16T14:58:32.731Z,24.70
2019-05-16T15:01:03.946Z,21.50
2019-05-16T15:03:36.605Z,23.40
2019-05-16T15:06:08.786Z,23.77
2019-05-16T15:08:39.900Z,23.30
2019-05-16T15:11:12.772Z,21.00
2019-05-16T15:13:43.911Z,24.27
2019-05-16T15:16:17.047Z,25.17
2019-05-16T15:18:48.852Z,20.50
2019-05-16T15:21:19.954Z,20.50
2019-05-16T15:23:51.118Z,23.20
2019-05-16T15:26:23.324Z,22.50
2019-05-16T15:28:54.653Z,23.50
2019-05-16T15:31:25.747Z,26.50
2019-05-16T15:33:57.248Z,24.85
2019-05-16T15:36:28.639Z,25.68
2019-05-16T15:39:00.143Z,21.40
2019-05-16T15:41:33.052Z,20.10
2019-05-16T15:44:07.554Z,22.10
2019-05-16T15:46:39.176Z,21.87
2019-05-16T15:49:10.575Z,23.50
2019-05-16T15:51:43.153Z,21.12
2019-05-16T15:54:18.778Z,22.05
2019-05-16T15:56:51.746Z,20.90
2019-05-16T15:59:22.944Z,21.10
2019-05-16T16:01:53.858Z,20.45
2019-05-16T16:04:27.069Z,22.35
2019-05-16T16:06:57.847Z,18.27
2019-05-16T16:09:29.210Z,19.62
2019-05-16T16:12:02.011Z,18.98
2019-05-16T16:14:33.455Z,18.67
2019-05-16T16:17:06.617Z,19.75
2019-05-16T16:19:37.590Z,21.73
2019-05-16T16:22:09.308Z,20.40
2019-05-16T16:24:40.567Z,18.37
2019-05-16T16:27:12.059Z,18.85
2019-05-16T16:29:42.957Z,18.95
2019-05-16T16:32:17.207Z,20.48
2019-05-16T16:34:48.933Z,18.60
2019-05-16T16:37:20.132Z,23.65
2019-05-16T16:39:51.050Z,21.15
2019-05-16T16:42:22.403Z,19.95
2019-05-16T16:44:53.591Z,19.67
2019-05-16T16:47:26.916Z,20.65
2019-05-16T16:49:59.290Z,25.12
2019-05-16T16:52:30.625Z,23.30
2019-05-16T16:55:01.783Z,21.75
2019-05-16T16:57:32.924Z,20.77
2019-05-16T17:00:07.514Z,21.35
2019-05-16T17:02:38.617Z,21.57
2019-05-16T17:05:13.092Z,19.45
2019-05-16T17:07:44.059Z,24.27
2019-05-16T17:10:17.608Z,20.60
2019-05-16T17:12:48.681Z,21.50
2019-05-16T17:15:20.280Z,24.45
2019-05-16T17:17:51.368Z,23.50
2019-05-16T17:20:24.229Z,18.23
2019-05-16T17:22:57.221Z,17.45
2019-05-16T17:25:28.229Z,23.02
2019-05-16T17:27:59.768Z,21.62
2019-05-16T17:30:30.891Z,21.10
2019-05-16T17:33:02.443Z,19.23
2019-05-16T17:35:33.688Z,18.30
2019-05-16T17:38:06.693Z,20.08
2019-05-16T17:40:38.689Z,20.30
2019-05-16T17:43:09.898Z,17.95
2019-05-16T17:45:41.153Z,18.60
2019-05-16T17:48:12.476Z,16.00
2019-05-16T17:50:43.688Z,19.10
2019-05-16T17:53:17.316Z,20.92
2019-05-16T17:55:48.015Z,24.10
2019-05-16T17:58:19.215Z,23.60
2019-05-16T18:00:50.701Z,25.90
2019-05-16T18:03:21.907Z,26.42
2019-05-16T18:05:53.168Z,30.70
2019-05-16T18:08:24.423Z,28.90
2019-05-16T18:10:56.494Z,31.50
2019-05-16T18:13:28.030Z,29.48
2019-05-16T18:15:59.163Z,24.77
2019-05-16T18:18:30.166Z,21.90
2019-05-16T18:21:02.368Z,32.40
2019-05-16T18:23:33.742Z,36.33
2019-05-16T18:26:07.436Z,31.90
2019-05-16T18:28:38.119Z,27.58
2019-05-16T18:31:09.653Z,28.23
2019-05-16T18:33:40.852Z,27.35
2019-05-16T18:36:12.075Z,25.68
2019-05-16T18:38:43.328Z,23.55
2019-05-16T18:41:16.491Z,21.97
2019-05-16T18:43:48.236Z,21.45
2019-05-16T18:46:19.670Z,25.52
2019-05-16T18:48:50.736Z,30.90
2019-05-16T18:51:21.744Z,27.05
2019-05-16T18:53:53.448Z,27.52
2019-05-16T18:56:27.045Z,26.55
2019-05-16T18:58:57.739Z,26.12
2019-05-16T19:01:28.816Z,26.30
2019-05-16T19:03:59.821Z,27.15
2019-05-16T19:06:31.519Z,27.17
2019-05-16T19:09:02.613Z,26.33
2019-05-16T19:11:33.608Z,29.07
2019-05-16T19:14:07.424Z,35.45
2019-05-16T19:16:37.935Z,33.75
2019-05-16T19:19:10.576Z,36.42
2019-05-16T19:21:41.725Z,32.05
2019-05-16T19:24:12.763Z,30.82
2019-05-16T19:26:43.978Z,30.70
2019-05-16T19:29:17.185Z,30.30
2019-05-16T19:31:50.470Z,29.95
2019-05-16T19:34:21.009Z,37.83
2019-05-16T19:36:52.276Z,33.42
2019-05-16T19:39:23.535Z,35.92
2019-05-16T19:41:57.101Z,36.13
2019-05-16T19:44:27.650Z,31.57
2019-05-16T19:46:58.791Z,29.90
2019-05-16T19:49:29.898Z,38.08
2019-05-16T19:52:01.030Z,36.42
2019-05-16T19:54:32.264Z,40.12
2019-05-16T19:57:03.340Z,44.23
2019-05-16T19:59:36.579Z,43.38
2019-05-16T20:02:10.125Z,41.18
2019-05-16T20:04:41.388Z,41.70
2019-05-16T20:07:12.764Z,39.15
2019-05-16T20:09:43.873Z,37.63
2019-05-16T20:12:16.882Z,38.98
2019-05-16T20:14:47.914Z,38.92
2019-05-16T20:17:19.444Z,37.73
2019-05-16T20:19:50.705Z,36.15
2019-05-16T20:22:23.250Z,36.38
2019-05-16T20:24:56.171Z,34.00
2019-05-16T20:27:27.537Z,36.03
2019-05-16T20:29:59.413Z,40.03
2019-05-16T20:32:32.054Z,33.55
2019-05-16T20:35:03.106Z,32.98
2019-05-16T20:37:36.674Z,32.17
2019-05-16T20:40:09.897Z,34.10
2019-05-16T20:42:41.428Z,33.35
2019-05-16T20:45:12.884Z,45.80
2019-05-16T20:47:44.889Z,43.60
2019-05-16T20:50:16.949Z,36.93
2019-05-16T20:52:48.695Z,33.38
2019-05-16T20:55:20.155Z,34.98
2019-05-16T20:57:51.298Z,36.28
2019-05-16T21:00:22.851Z,32.50
2019-05-16T21:02:53.914Z,34.35
2019-05-16T21:05:26.808Z,32.17
2019-05-16T21:07:58.147Z,37.10
2019-05-16T21:10:29.264Z,32.53
2019-05-16T21:13:02.636Z,33.88
2019-05-16T21:15:33.688Z,32.83
2019-05-16T21:18:07.325Z,38.30
2019-05-16T21:20:38.962Z,38.83
2019-05-16T21:23:10.477Z,33.88
2019-05-16T21:25:41.725Z,34.48
2019-05-16T21:28:12.764Z,34.78
2019-05-16T21:30:43.910Z,33.75
2019-05-16T21:33:16.536Z,35.75
2019-05-16T21:35:48.191Z,36.08
2019-05-16T21:38:19.603Z,34.70
2019-05-16T21:40:50.613Z,31.87
2019-05-16T21:43:21.770Z,35.38
2019-05-16T21:45:53.014Z,34.70
2019-05-16T21:48:24.324Z,33.28
2019-05-16T21:50:57.034Z,35.43
2019-05-16T21:53:30.099Z,32.45
2019-05-16T21:56:00.999Z,31.37
2019-05-16T21:58:32.107Z,30.20
2019-05-16T22:01:06.989Z,32.38
2019-05-16T22:03:38.113Z,36.17
2019-05-16T22:06:09.356Z,36.15
2019-05-16T22:08:40.494Z,35.25
2019-05-16T22:11:11.733Z,35.15
2019-05-16T22:13:43.147Z,34.20
2019-05-16T22:16:17.354Z,35.85
2019-05-16T22:18:47.580Z,33.85
2019-05-16T22:21:18.857Z,33.38
2019-05-16T22:23:49.959Z,34.53
2019-05-16T22:26:21.611Z,35.88
2019-05-16T22:28:52.824Z,27.58
2019-05-16T22:31:24.081Z,27.95
2019-05-16T22:33:55.198Z,31.80
2019-05-16T22:36:26.668Z,32.50
2019-05-16T22:38:59.686Z,34.45
2019-05-16T22:41:30.833Z,36.35
2019-05-16T22:44:01.778Z,32.98
2019-05-16T22:46:33.120Z,35.23
2019-05-16T22:49:07.636Z,36.63
2019-05-16T22:51:39.229Z,35.10
2019-05-16T22:54:10.439Z,33.23
2019-05-16T22:56:41.989Z,34.58
2019-05-16T22:59:13.146Z,32.73
2019-05-16T23:01:44.315Z,34.50
2019-05-16T23:04:16.828Z,32.95
2019-05-16T23:06:48.217Z,31.52
2019-05-16T23:09:19.321Z,35.73
2019-05-16T23:11:50.502Z,30.82
2019-05-16T23:14:21.548Z,33.30
2019-05-16T23:16:52.879Z,34.13
2019-05-16T23:19:26.385Z,33.48
2019-05-16T23:21:57.479Z,29.30
2019-05-16T23:24:29.839Z,26.00
2019-05-16T23:27:01.949Z,31.70
2019-05-16T23:29:33.101Z,26.95
2019-05-16T23:32:04.204Z,27.13
2019-05-16T23:34:37.366Z,27.62
2019-05-16T23:37:08.195Z,24.25
2019-05-16T23:39:39.490Z,25.72
2019-05-16T23:42:10.918Z,25.57
2019-05-16T23:44:42.171Z,25.10
2019-05-16T23:47:13.605Z,22.02
2019-05-16T23:49:47.145Z,22.20
2019-05-16T23:52:18.834Z,23.07
2019-05-16T23:54:51.591Z,18.90
2019-05-16T23:57:22.442Z,23.15
2019-05-16T23:59:53.453Z,25.85
